sensor_id;sensor_type;location;lat;lon;timestamp;pressure;altitude;pressure_sealevel;temperature;humidity
18509;BME280;9383;50.928;12.116;2023-03-26T00:00:41;97893.47;;;6.99;93.85
18509;BME280;9383;50.928;12.116;2023-03-26T00:03:10;97893.41;;;7.00;94.03
18509;BME280;9383;50.928;12.116;2023-03-26T00:05:38;97904.00;;;6.99;94.38
18509;BME280;9383;50.928;12.116;2023-03-26T00:08:05;97901.31;;;7.00;94.37
18509;BME280;9383;50.928;12.116;2023-03-26T00:10:37;97900.47;;;7.00;95.05
18509;BME280;9383;50.928;12.116;2023-03-26T00:13:05;97908.38;;;7.00;94.79
18509;BME280;9383;50.928;12.116;2023-03-26T00:15:33;97903.88;;;7.02;95.05
18509;BME280;9383;50.928;12.116;2023-03-26T00:18:00;97902.19;;;7.01;95.56
18509;BME280;9383;50.928;12.116;2023-03-26T00:20:28;97909.16;;;7.02;95.00
18509;BME280;9383;50.928;12.116;2023-03-26T00:22:55;97911.78;;;7.02;95.29
18509;BME280;9383;50.928;12.116;2023-03-26T00:25:22;97915.31;;;7.02;95.28
18509;BME280;9383;50.928;12.116;2023-03-26T00:27:49;97914.38;;;7.03;95.20
18509;BME280;9383;50.928;12.116;2023-03-26T00:30:16;97909.13;;;7.03;95.17
18509;BME280;9383;50.928;12.116;2023-03-26T00:32:43;97910.88;;;7.03;95.66
18509;BME280;9383;50.928;12.116;2023-03-26T00:35:09;97907.41;;;7.02;95.36
18509;BME280;9383;50.928;12.116;2023-03-26T00:37:36;97905.59;;;7.03;95.24
18509;BME280;9383;50.928;12.116;2023-03-26T00:40:03;97907.31;;;7.04;95.47
18509;BME280;9383;50.928;12.116;2023-03-26T00:42:32;97909.16;;;7.02;95.41
18509;BME280;9383;50.928;12.116;2023-03-26T00:44:59;97897.75;;;7.01;95.16
18509;BME280;9383;50.928;12.116;2023-03-26T00:47:29;97902.19;;;7.01;95.05
18509;BME280;9383;50.928;12.116;2023-03-26T00:49:56;97911.00;;;7.00;95.00
18509;BME280;9383;50.928;12.116;2023-03-26T00:52:23;97907.50;;;6.99;94.88
18509;BME280;9383;50.928;12.116;2023-03-26T00:54:53;97900.47;;;7.00;94.93
18509;BME280;9383;50.928;12.116;2023-03-26T00:57:20;97905.72;;;7.00;95.01
18509;BME280;9383;50.928;12.116;2023-03-26T00:59:48;97900.47;;;7.00;95.21
18509;BME280;9383;50.928;12.116;2023-03-26T01:02:17;97907.56;;;6.98;95.33
18509;BME280;9383;50.928;12.116;2023-03-26T01:04:50;97912.03;;;6.96;95.14
18509;BME280;9383;50.928;12.116;2023-03-26T01:07:25;97907.56;;;6.98;95.47
18509;BME280;9383;50.928;12.116;2023-03-26T01:09:58;97902.38;;;6.95;95.61
18509;BME280;9383;50.928;12.116;2023-03-26T01:12:28;97912.91;;;6.95;95.91
18509;BME280;9383;50.928;12.116;2023-03-26T01:14:59;97910.28;;;6.95;95.51
18509;BME280;9383;50.928;12.116;2023-03-26T01:17:27;97906.78;;;6.96;95.64
18509;BME280;9383;50.928;12.116;2023-03-26T01:20:08;97904.13;;;6.96;95.56
18509;BME280;9383;50.928;12.116;2023-03-26T01:22:46;97899.66;;;6.98;96.05
18509;BME280;9383;50.928;12.116;2023-03-26T01:25:14;97896.16;;;6.97;96.05
18509;BME280;9383;50.928;12.116;2023-03-26T01:27:49;97904.13;;;6.96;95.99
18509;BME280;9383;50.928;12.116;2023-03-26T01:30:33;97902.34;;;6.96;95.91
18509;BME280;9383;50.928;12.116;2023-03-26T01:33:16;97910.25;;;6.96;96.32
18509;BME280;9383;50.928;12.116;2023-03-26T01:36:28;97905.84;;;6.97;96.57
18509;BME280;9383;50.928;12.116;2023-03-26T01:39:04;97905.84;;;6.97;96.15
18509;BME280;9383;50.928;12.116;2023-03-26T01:46:35;97900.00;;;6.88;99.12
18509;BME280;9383;50.928;12.116;2023-03-26T01:49:05;97892.09;;;6.88;99.12
18509;BME280;9383;50.928;12.116;2023-03-26T01:51:40;97892.22;;;6.85;100.00
18509;BME280;9383;50.928;12.116;2023-03-26T01:54:41;97896.59;;;6.85;100.00
18509;BME280;9383;50.928;12.116;2023-03-26T01:57:30;97894.84;;;6.85;99.91
18509;BME280;9383;50.928;12.116;2023-03-26T02:08:27;97887.44;;;6.71;100.00
18509;BME280;9383;50.928;12.116;2023-03-26T02:11:06;97879.50;;;6.73;100.00
18509;BME280;9383;50.928;12.116;2023-03-26T02:13:37;97875.16;;;6.72;100.00
18509;BME280;9383;50.928;12.116;2023-03-26T02:16:06;97881.25;;;6.72;100.00
18509;BME280;9383;50.928;12.116;2023-03-26T02:18:33;97876.06;;;6.71;100.00
18509;BME280;9383;50.928;12.116;2023-03-26T02:21:07;97870.88;;;6.68;100.00
18509;BME280;9383;50.928;12.116;2023-03-26T02:23:40;97870.09;;;6.66;100.00
18509;BME280;9383;50.928;12.116;2023-03-26T02:26:08;97872.66;;;6.67;100.00
18509;BME280;9383;50.928;12.116;2023-03-26T02:28:36;97871.88;;;6.65;100.00
18509;BME280;9383;50.928;12.116;2023-03-26T02:31:03;97872.84;;;6.63;100.00
18509;BME280;9383;50.928;12.116;2023-03-26T02:33:30;97871.91;;;6.64;100.00
18509;BME280;9383;50.928;12.116;2023-03-26T02:35:58;97865.78;;;6.63;100.00
18509;BME280;9383;50.928;12.116;2023-03-26T02:38:28;97872.84;;;6.63;100.00
18509;BME280;9383;50.928;12.116;2023-03-26T02:40:55;97870.19;;;6.63;100.00
18509;BME280;9383;50.928;12.116;2023-03-26T02:43:22;97870.09;;;6.66;100.00
18509;BME280;9383;50.928;12.116;2023-03-26T02:45:48;97870.88;;;6.68;100.00
18509;BME280;9383;50.928;12.116;2023-03-26T02:48:15;97871.81;;;6.67;100.00
18509;BME280;9383;50.928;12.116;2023-03-26T02:50:42;97866.53;;;6.67;100.00
18509;BME280;9383;50.928;12.116;2023-03-26T02:53:09;97863.97;;;6.65;100.00
18509;BME280;9383;50.928;12.116;2023-03-26T02:55:37;97869.13;;;6.68;100.00
18509;BME280;9383;50.928;12.116;2023-03-26T02:58:03;97866.59;;;6.65;100.00
18509;BME280;9383;50.928;12.116;2023-03-26T03:00:30;97868.25;;;6.68;100.00
18509;BME280;9383;50.928;12.116;2023-03-26T03:02:56;97864.69;;;6.69;100.00
18509;BME280;9383;50.928;12.116;2023-03-26T03:05:23;97868.25;;;6.68;100.00
18509;BME280;9383;50.928;12.116;2023-03-26T03:07:52;97857.72;;;6.68;100.00
18509;BME280;9383;50.928;12.116;2023-03-26T03:10:24;97858.50;;;6.70;100.00
18509;BME280;9383;50.928;12.116;2023-03-26T03:12:52;97869.97;;;6.69;100.00
18509;BME280;9383;50.928;12.116;2023-03-26T03:15:19;97861.16;;;6.70;100.00
18509;BME280;9383;50.928;12.116;2023-03-26T03:17:46;97860.31;;;6.69;100.00
18509;BME280;9383;50.928;12.116;2023-03-26T03:20:13;97851.59;;;6.67;100.00
18509;BME280;9383;50.928;12.116;2023-03-26T03:22:41;97858.50;;;6.70;100.00
18509;BME280;9383;50.928;12.116;2023-03-26T03:25:08;97853.31;;;6.68;100.00
18509;BME280;9383;50.928;12.116;2023-03-26T03:27:35;97854.16;;;6.69;100.00
18509;BME280;9383;50.928;12.116;2023-03-26T03:30:05;97861.16;;;6.70;100.00
18509;BME280;9383;50.928;12.116;2023-03-26T03:32:31;97858.50;;;6.70;100.00
18509;BME280;9383;50.928;12.116;2023-03-26T03:34:58;97862.03;;;6.70;100.00
18509;BME280;9383;50.928;12.116;2023-03-26T03:37:24;97858.50;;;6.70;100.00
18509;BME280;9383;50.928;12.116;2023-03-26T03:39:52;97855.88;;;6.70;100.00
18509;BME280;9383;50.928;12.116;2023-03-26T03:42:18;97847.97;;;6.70;100.00
18509;BME280;9383;50.928;12.116;2023-03-26T03:44:45;97856.75;;;6.70;100.00
18509;BME280;9383;50.928;12.116;2023-03-26T03:47:11;97860.31;;;6.69;100.00
18509;BME280;9383;50.928;12.116;2023-03-26T03:49:39;97860.25;;;6.71;100.00
18509;BME280;9383;50.928;12.116;2023-03-26T03:52:06;97856.72;;;6.72;100.00
18509;BME280;9383;50.928;12.116;2023-03-26T03:54:33;97861.06;;;6.73;100.00
18509;BME280;9383;50.928;12.116;2023-03-26T03:56:59;97858.44;;;6.73;100.00
18509;BME280;9383;50.928;12.116;2023-03-26T03:59:27;97855.84;;;6.71;100.00
18509;BME280;9383;50.928;12.116;2023-03-26T04:01:53;97854.91;;;6.72;100.00
18509;BME280;9383;50.928;12.116;2023-03-26T04:04:20;97857.56;;;6.72;100.00
18509;BME280;9383;50.928;12.116;2023-03-26T04:06:47;97852.28;;;6.72;100.00
18509;BME280;9383;50.928;12.116;2023-03-26T04:09:13;97851.44;;;6.72;100.00
18509;BME280;9383;50.928;12.116;2023-03-26T04:11:40;97855.78;;;6.73;100.00
18509;BME280;9383;50.928;12.116;2023-03-26T04:14:06;97850.53;;;6.73;100.00
18509;BME280;9383;50.928;12.116;2023-03-26T04:16:33;97852.25;;;6.74;100.00
18509;BME280;9383;50.928;12.116;2023-03-26T04:18:59;97854.88;;;6.74;100.00
18509;BME280;9383;50.928;12.116;2023-03-26T04:21:28;97853.94;;;6.75;100.00
18509;BME280;9383;50.928;12.116;2023-03-26T04:23:57;97846.97;;;6.74;100.00
18509;BME280;9383;50.928;12.116;2023-03-26T04:26:26;97853.06;;;6.74;100.00
18509;BME280;9383;50.928;12.116;2023-03-26T04:28:59;97856.59;;;6.75;100.00
18509;BME280;9383;50.928;12.116;2023-03-26T04:31:26;97848.69;;;6.75;100.00
18509;BME280;9383;50.928;12.116;2023-03-26T04:34:20;97850.41;;;6.76;100.00
18509;BME280;9383;50.928;12.116;2023-03-26T04:36:49;97847.81;;;6.74;100.00
18509;BME280;9383;50.928;12.116;2023-03-26T04:39:20;97851.31;;;6.75;100.00
18509;BME280;9383;50.928;12.116;2023-03-26T04:41:59;97847.81;;;6.74;100.00
18509;BME280;9383;50.928;12.116;2023-03-26T04:44:25;97853.16;;;6.73;100.00
18509;BME280;9383;50.928;12.116;2023-03-26T04:46:55;97856.72;;;6.72;100.00
18509;BME280;9383;50.928;12.116;2023-03-26T04:49:22;97848.81;;;6.72;100.00
18509;BME280;9383;50.928;12.116;2023-03-26T04:51:48;97856.72;;;6.72;100.00
18509;BME280;9383;50.928;12.116;2023-03-26T04:54:17;97854.91;;;6.72;100.00
18509;BME280;9383;50.928;12.116;2023-03-26T04:56:58;97856.63;;;6.73;100.00
18509;BME280;9383;50.928;12.116;2023-03-26T04:59:31;97859.25;;;6.73;100.00
18509;BME280;9383;50.928;12.116;2023-03-26T05:02:04;97856.63;;;6.73;100.00
18509;BME280;9383;50.928;12.116;2023-03-26T05:04:31;97855.72;;;6.74;100.00
18509;BME280;9383;50.928;12.116;2023-03-26T05:07:01;97858.34;;;6.74;100.00
18509;BME280;9383;50.928;12.116;2023-03-26T05:09:28;97855.72;;;6.74;100.00
18509;BME280;9383;50.928;12.116;2023-03-26T05:11:55;97859.22;;;6.75;100.00
18509;BME280;9383;50.928;12.116;2023-03-26T05:14:22;97855.66;;;6.76;100.00
18509;BME280;9383;50.928;12.116;2023-03-26T05:16:49;97857.44;;;6.75;100.00
18509;BME280;9383;50.928;12.116;2023-03-26T05:19:18;97860.94;;;6.76;100.00
18509;BME280;9383;50.928;12.116;2023-03-26T05:21:44;97860.00;;;6.77;100.00
18509;BME280;9383;50.928;12.116;2023-03-26T05:24:11;97854.78;;;6.75;100.00
18509;BME280;9383;50.928;12.116;2023-03-26T05:26:37;97856.59;;;6.75;100.00
18509;BME280;9383;50.928;12.116;2023-03-26T05:29:04;97857.56;;;6.72;100.00
18509;BME280;9383;50.928;12.116;2023-03-26T05:31:31;97853.19;;;6.71;100.00
18509;BME280;9383;50.928;12.116;2023-03-26T05:33:58;97784.53;;;6.28;100.00
18509;BME280;9383;50.928;12.116;2023-03-26T05:36:25;97861.91;;;6.73;100.00
18509;BME280;9383;50.928;12.116;2023-03-26T05:38:53;97859.22;;;6.75;100.00
18509;BME280;9383;50.928;12.116;2023-03-26T05:41:42;97853.06;;;6.74;100.00
18509;BME280;9383;50.928;12.116;2023-03-26T05:44:09;97854.06;;;6.72;100.00
18509;BME280;9383;50.928;12.116;2023-03-26T05:46:35;97844.34;;;6.74;100.00
18509;BME280;9383;50.928;12.116;2023-03-26T05:49:02;97850.34;;;6.78;100.00
18509;BME280;9383;50.928;12.116;2023-03-26T05:51:28;97842.38;;;6.79;100.00
18509;BME280;9383;50.928;12.116;2023-03-26T05:53:55;97844.09;;;6.80;100.00
18509;BME280;9383;50.928;12.116;2023-03-26T05:56:21;97838.81;;;6.80;100.00
18509;BME280;9383;50.928;12.116;2023-03-26T05:58:47;97837.84;;;6.83;100.00
18509;BME280;9383;50.928;12.116;2023-03-26T06:01:14;97826.34;;;6.85;100.00
18509;BME280;9383;50.928;12.116;2023-03-26T06:03:44;97825.44;;;6.86;100.00
18509;BME280;9383;50.928;12.116;2023-03-26T06:06:14;97812.16;;;6.89;100.00
18509;BME280;9383;50.928;12.116;2023-03-26T06:08:46;97816.50;;;6.90;100.00
18509;BME280;9383;50.928;12.116;2023-03-26T06:11:15;97813.81;;;6.92;100.00
18509;BME280;9383;50.928;12.116;2023-03-26T06:13:42;97809.28;;;6.96;100.00
18509;BME280;9383;50.928;12.116;2023-03-26T06:16:10;97811.00;;;6.97;100.00
18509;BME280;9383;50.928;12.116;2023-03-26T06:18:37;97814.56;;;6.96;100.00
18509;BME280;9383;50.928;12.116;2023-03-26T06:21:05;97820.66;;;6.96;100.00
18509;BME280;9383;50.928;12.116;2023-03-26T06:23:32;97822.38;;;6.97;100.00
18509;BME280;9383;50.928;12.116;2023-03-26T06:25:59;97819.63;;;7.00;100.00
18509;BME280;9383;50.928;12.116;2023-03-26T06:28:26;97823.19;;;6.99;100.00
18509;BME280;9383;50.928;12.116;2023-03-26T06:30:52;97817.84;;;7.01;100.00
18509;BME280;9383;50.928;12.116;2023-03-26T06:33:19;97814.25;;;7.03;100.00
18509;BME280;9383;50.928;12.116;2023-03-26T06:35:46;97805.47;;;7.03;100.00
18509;BME280;9383;50.928;12.116;2023-03-26T06:38:13;97814.19;;;7.05;100.00
18509;BME280;9383;50.928;12.116;2023-03-26T06:40:39;97808.91;;;7.05;100.00
18509;BME280;9383;50.928;12.116;2023-03-26T06:43:06;97809.59;;;7.10;100.00
18509;BME280;9383;50.928;12.116;2023-03-26T06:45:32;97807.59;;;7.17;100.00
18509;BME280;9383;50.928;12.116;2023-03-26T06:47:59;97800.34;;;7.22;100.00
18509;BME280;9383;50.928;12.116;2023-03-26T06:50:26;97802.94;;;7.24;100.00
18509;BME280;9383;50.928;12.116;2023-03-26T06:52:54;97797.56;;;7.25;100.00
18509;BME280;9383;50.928;12.116;2023-03-26T06:55:21;97803.66;;;7.27;100.00
18509;BME280;9383;50.928;12.116;2023-03-26T06:57:53;97799.06;;;7.32;100.00
18509;BME280;9383;50.928;12.116;2023-03-26T07:00:20;97800.81;;;7.32;100.00
18509;BME280;9383;50.928;12.116;2023-03-26T07:02:47;97805.88;;;7.38;100.00
18509;BME280;9383;50.928;12.116;2023-03-26T07:05:14;97801.34;;;7.42;100.00
18509;BME280;9383;50.928;12.116;2023-03-26T07:07:40;97798.50;;;7.46;100.00
18509;BME280;9383;50.928;12.116;2023-03-26T07:10:07;97799.97;;;7.54;100.00
18509;BME280;9383;50.928;12.116;2023-03-26T07:12:34;97795.38;;;7.59;100.00
18509;BME280;9383;50.928;12.116;2023-03-26T07:15:02;97788.06;;;7.66;100.00
18509;BME280;9383;50.928;12.116;2023-03-26T07:17:28;97787.00;;;7.70;99.51
18509;BME280;9383;50.928;12.116;2023-03-26T07:19:55;97773.53;;;7.76;99.25
18509;BME280;9383;50.928;12.116;2023-03-26T07:22:24;97776.84;;;7.81;98.35
18509;BME280;9383;50.928;12.116;2023-03-26T07:24:51;97769.44;;;7.89;98.54
18509;BME280;9383;50.928;12.116;2023-03-26T07:27:34;97769.97;;;7.98;97.64
18509;BME280;9383;50.928;12.116;2023-03-26T07:30:08;97769.59;;;8.07;97.14
18509;BME280;9383;50.928;12.116;2023-03-26T07:35:38;97760.16;;;8.22;92.24
18509;BME280;9383;50.928;12.116;2023-03-26T07:38:31;97757.22;;;8.28;91.57
18509;BME280;9383;50.928;12.116;2023-03-26T07:41:08;97756.97;;;8.35;91.42
18509;BME280;9383;50.928;12.116;2023-03-26T07:43:52;97746.03;;;8.42;91.52
18509;BME280;9383;50.928;12.116;2023-03-26T07:46:28;97734.25;;;8.50;89.63
18509;BME280;9383;50.928;12.116;2023-03-26T07:48:55;97739.22;;;8.57;90.16
18509;BME280;9383;50.928;12.116;2023-03-26T07:51:24;97745.78;;;8.68;90.07
18509;BME280;9383;50.928;12.116;2023-03-26T07:53:50;97743.81;;;8.73;87.97
18509;BME280;9383;50.928;12.116;2023-03-26T08:01:51;97738.06;;;8.82;83.86
18509;BME280;9383;50.928;12.116;2023-03-26T08:05:00;97724.56;;;8.89;84.61
18509;BME280;9383;50.928;12.116;2023-03-26T08:07:55;97643.63;;;8.49;84.67
18509;BME280;9383;50.928;12.116;2023-03-26T08:16:06;97709.34;;;9.31;83.00
18509;BME280;9383;50.928;12.116;2023-03-26T08:18:45;97711.72;;;9.35;82.14
18509;BME280;9383;50.928;12.116;2023-03-26T08:21:40;97707.78;;;9.44;82.27
18509;BME280;9383;50.928;12.116;2023-03-26T08:27:02;97701.31;;;9.67;82.25
18509;BME280;9383;50.928;12.116;2023-03-26T08:32:18;97693.88;;;9.92;77.57
18509;BME280;9383;50.928;12.116;2023-03-26T08:34:45;97691.47;;;10.05;78.19
18509;BME280;9383;50.928;12.116;2023-03-26T08:37:11;97688.63;;;10.08;76.29
18509;BME280;9383;50.928;12.116;2023-03-26T08:39:38;97687.09;;;10.04;74.86
18509;BME280;9383;50.928;12.116;2023-03-26T08:47:59;97696.09;;;10.17;73.63
18509;BME280;9383;50.928;12.116;2023-03-26T08:54:01;97693.56;;;10.32;71.78
18509;BME280;9383;50.928;12.116;2023-03-26T09:02:29;97695.00;;;10.21;69.88
18509;BME280;9383;50.928;12.116;2023-03-26T09:05:13;97685.78;;;10.28;70.73
18509;BME280;9383;50.928;12.116;2023-03-26T09:10:51;97683.28;;;10.43;71.22
18509;BME280;9383;50.928;12.116;2023-03-26T09:13:44;97676.84;;;10.47;68.98
18509;BME280;9383;50.928;12.116;2023-03-26T09:16:38;97666.19;;;10.65;70.96
18509;BME280;9383;50.928;12.116;2023-03-26T09:22:29;97661.53;;;10.84;66.15
18509;BME280;9383;50.928;12.116;2023-03-26T09:25:17;97654.78;;;10.95;67.84
18509;BME280;9383;50.928;12.116;2023-03-26T09:34:13;97639.84;;;11.24;68.18
18509;BME280;9383;50.928;12.116;2023-03-26T09:36:50;97635.66;;;11.20;63.56
18509;BME280;9383;50.928;12.116;2023-03-26T09:42:16;97627.13;;;11.30;66.05
18509;BME280;9383;50.928;12.116;2023-03-26T09:45:30;97626.34;;;11.13;65.31
18509;BME280;9383;50.928;12.116;2023-03-26T09:48:11;97626.41;;;11.11;65.21
18509;BME280;9383;50.928;12.116;2023-03-26T09:50:50;97620.81;;;11.02;64.99
18509;BME280;9383;50.928;12.116;2023-03-26T10:10:53;97617.47;;;10.98;67.28
18509;BME280;9383;50.928;12.116;2023-03-26T10:16:31;97608.38;;;10.88;68.61
18509;BME280;9383;50.928;12.116;2023-03-26T10:24:47;97594.50;;;10.82;68.83
18509;BME280;9383;50.928;12.116;2023-03-26T10:27:38;97589.03;;;10.86;67.06
18509;BME280;9383;50.928;12.116;2023-03-26T10:30:52;97586.72;;;10.95;67.30
18509;BME280;9383;50.928;12.116;2023-03-26T10:53:57;97563.31;;;10.88;65.76
18509;BME280;9383;50.928;12.116;2023-03-26T10:56:45;97560.81;;;10.84;65.53
18509;BME280;9383;50.928;12.116;2023-03-26T10:59:14;97559.22;;;10.82;66.80
18509;BME280;9383;50.928;12.116;2023-03-26T11:07:35;97563.53;;;10.68;66.06
18509;BME280;9383;50.928;12.116;2023-03-26T11:10:24;97569.81;;;10.82;66.93
18509;BME280;9383;50.928;12.116;2023-03-26T11:13:17;97568.94;;;10.81;65.86
18509;BME280;9383;50.928;12.116;2023-03-26T11:16:03;97569.03;;;10.80;67.57
18509;BME280;9383;50.928;12.116;2023-03-26T11:19:04;97568.94;;;10.81;65.28
18509;BME280;9383;50.928;12.116;2023-03-26T11:21:42;97559.34;;;10.95;66.34
18509;BME280;9383;50.928;12.116;2023-03-26T11:24:38;97566.53;;;10.93;64.03
18509;BME280;9383;50.928;12.116;2023-03-26T11:30:27;97564.44;;;10.98;65.55
18509;BME280;9383;50.928;12.116;2023-03-26T11:33:04;97565.41;;;10.97;64.09
18509;BME280;9383;50.928;12.116;2023-03-26T11:35:36;97554.03;;;10.95;64.52
18509;BME280;9383;50.928;12.116;2023-03-26T11:38:21;97552.31;;;10.94;64.37
18509;BME280;9383;50.928;12.116;2023-03-26T11:40:52;97558.13;;;11.01;64.40
18509;BME280;9383;50.928;12.116;2023-03-26T11:43:28;97553.09;;;10.96;64.44
18509;BME280;9383;50.928;12.116;2023-03-26T11:45:58;97562.59;;;11.00;63.46
18509;BME280;9383;50.928;12.116;2023-03-26T11:48:29;97559.88;;;10.86;63.23
18509;BME280;9383;50.928;12.116;2023-03-26T11:51:13;97558.72;;;10.75;63.12
18509;BME280;9383;50.928;12.116;2023-03-26T11:53:42;97566.69;;;10.59;64.55
18509;BME280;9383;50.928;12.116;2023-03-26T11:56:13;97561.06;;;10.49;66.99
18509;BME280;9383;50.928;12.116;2023-03-26T11:58:53;97558.06;;;10.55;67.72
18509;BME280;9383;50.928;12.116;2023-03-26T12:01:25;97569.69;;;10.37;69.15
18509;BME280;9383;50.928;12.116;2023-03-26T12:04:05;97568.56;;;10.25;70.34
18509;BME280;9383;50.928;12.116;2023-03-26T12:06:34;97572.47;;;10.34;70.10
18509;BME280;9383;50.928;12.116;2023-03-26T12:09:02;97568.75;;;10.38;70.33
18509;BME280;9383;50.928;12.116;2023-03-26T12:11:30;97563.19;;;10.43;70.30
18509;BME280;9383;50.928;12.116;2023-03-26T12:14:02;97567.03;;;10.37;70.67
18509;BME280;9383;50.928;12.116;2023-03-26T12:17:24;97574.28;;;10.17;71.40
18509;BME280;9383;50.928;12.116;2023-03-26T12:19:45;97571.28;;;9.91;73.50
18509;BME280;9383;50.928;12.116;2023-03-26T12:22:35;97566.25;;;10.03;73.36
18509;BME280;9383;50.928;12.116;2023-03-26T12:30:42;97566.28;;;10.19;74.92
18509;BME280;9383;50.928;12.116;2023-03-26T12:33:29;97568.81;;;10.20;75.90
18509;BME280;9383;50.928;12.116;2023-03-26T12:36:22;97565.56;;;9.99;78.82
18509;BME280;9383;50.928;12.116;2023-03-26T12:38:52;97569.22;;;9.96;80.15
18509;BME280;9383;50.928;12.116;2023-03-26T12:41:32;97571.75;;;9.66;81.31
18509;BME280;9383;50.928;12.116;2023-03-26T12:44:28;97566.97;;;9.39;83.14
18509;BME280;9383;50.928;12.116;2023-03-26T12:47:09;97563.03;;;9.30;84.20
18509;BME280;9383;50.928;12.116;2023-03-26T12:49:37;97565.13;;;9.23;85.67
18509;BME280;9383;50.928;12.116;2023-03-26T12:52:17;97564.75;;;9.31;84.73
18509;BME280;9383;50.928;12.116;2023-03-26T12:54:57;97560.97;;;9.19;86.36
18509;BME280;9383;50.928;12.116;2023-03-26T12:57:32;97559.78;;;9.25;86.53
18509;BME280;9383;50.928;12.116;2023-03-26T13:03:20;97559.56;;;9.29;87.17
18509;BME280;9383;50.928;12.116;2023-03-26T13:12:30;97545.63;;;9.26;88.88
18509;BME280;9383;50.928;12.116;2023-03-26T13:17:18;97550.28;;;9.21;90.62
18509;BME280;9383;50.928;12.116;2023-03-26T13:20:08;97535.22;;;9.23;90.05
18509;BME280;9383;50.928;12.116;2023-03-26T13:22:57;97534.53;;;9.19;90.71
18509;BME280;9383;50.928;12.116;2023-03-26T13:26:00;97536.94;;;9.24;89.86
18509;BME280;9383;50.928;12.116;2023-03-26T13:33:57;97528.53;;;9.15;91.00
18509;BME280;9383;50.928;12.116;2023-03-26T13:42:37;97513.94;;;8.91;95.14
18509;BME280;9383;50.928;12.116;2023-03-26T13:48:06;97512.47;;;8.67;98.99
18509;BME280;9383;50.928;12.116;2023-03-26T13:50:39;97508.28;;;8.44;96.60
18509;BME280;9383;50.928;12.116;2023-03-26T13:53:17;97503.53;;;8.52;96.79
18509;BME280;9383;50.928;12.116;2023-03-26T13:55:53;97494.03;;;8.48;95.93
18509;BME280;9383;50.928;12.116;2023-03-26T13:58:37;97499.09;;;8.34;93.91
18509;BME280;9383;50.928;12.116;2023-03-26T14:09:14;97488.72;;;8.30;93.76
18509;BME280;9383;50.928;12.116;2023-03-26T14:17:21;97489.16;;;8.21;95.26
18509;BME280;9383;50.928;12.116;2023-03-26T14:22:49;97477.81;;;8.19;96.59
18509;BME280;9383;50.928;12.116;2023-03-26T14:29:16;97473.31;;;8.21;97.84
18509;BME280;9383;50.928;12.116;2023-03-26T14:37:52;97463.94;;;8.15;97.51
18509;BME280;9383;50.928;12.116;2023-03-26T14:40:46;97458.66;;;8.15;97.74
18509;BME280;9383;50.928;12.116;2023-03-26T14:49:09;97465.50;;;8.20;97.72
18509;BME280;9383;50.928;12.116;2023-03-26T14:51:52;97458.88;;;8.11;97.33
18509;BME280;9383;50.928;12.116;2023-03-26T14:54:25;97458.06;;;8.09;98.03
18509;BME280;9383;50.928;12.116;2023-03-26T14:59:50;97449.59;;;8.02;99.04
18509;BME280;9383;50.928;12.116;2023-03-26T15:14:23;97436.34;;;8.21;98.19
18509;BME280;9383;50.928;12.116;2023-03-26T15:20:17;97440.47;;;8.27;97.81
18509;BME280;9383;50.928;12.116;2023-03-26T15:23:25;97430.94;;;8.24;98.14
18509;BME280;9383;50.928;12.116;2023-03-26T15:32:17;97421.22;;;8.25;97.89
18509;BME280;9383;50.928;12.116;2023-03-26T15:35:31;97430.25;;;8.21;99.13
18509;BME280;9383;50.928;12.116;2023-03-26T15:38:20;97426.66;;;8.22;98.53
18509;BME280;9383;50.928;12.116;2023-03-26T15:46:50;97415.94;;;8.25;98.34
18509;BME280;9383;50.928;12.116;2023-03-26T15:49:29;97415.94;;;8.25;98.94
18509;BME280;9383;50.928;12.116;2023-03-26T15:52:48;97416.66;;;8.28;98.85
18509;BME280;9383;50.928;12.116;2023-03-26T15:55:32;97412.91;;;8.33;99.03
18509;BME280;9383;50.928;12.116;2023-03-26T16:01:16;97405.47;;;8.41;98.79
18509;BME280;9383;50.928;12.116;2023-03-26T16:04:00;97404.47;;;8.43;98.80
18509;BME280;9383;50.928;12.116;2023-03-26T16:06:58;97399.91;;;8.47;98.60
18509;BME280;9383;50.928;12.116;2023-03-26T16:12:32;97319.25;;;8.06;97.79
18509;BME280;9383;50.928;12.116;2023-03-26T16:23:29;97383.41;;;8.42;97.93
18509;BME280;9383;50.928;12.116;2023-03-26T16:26:59;97375.50;;;8.42;98.05
18509;BME280;9383;50.928;12.116;2023-03-26T16:29:03;97388.63;;;8.43;97.95
18509;BME280;9383;50.928;12.116;2023-03-26T16:31:34;97382.47;;;8.43;97.90
18509;BME280;9383;50.928;12.116;2023-03-26T16:36:35;97380.72;;;8.43;97.79
18509;BME280;9383;50.928;12.116;2023-03-26T16:41:59;97387.75;;;8.43;97.84
18509;BME280;9383;50.928;12.116;2023-03-26T16:44:36;97390.56;;;8.40;98.17
18509;BME280;9383;50.928;12.116;2023-03-26T16:47:50;97391.50;;;8.39;97.98
18509;BME280;9383;50.928;12.116;2023-03-26T16:53:20;97396.31;;;8.30;97.97
18509;BME280;9383;50.928;12.116;2023-03-26T16:55:58;97383.28;;;8.27;97.96
18509;BME280;9383;50.928;12.116;2023-03-26T17:01:24;97391.34;;;8.24;98.00
18509;BME280;9383;50.928;12.116;2023-03-26T17:04:07;97397.56;;;8.23;97.98
18509;BME280;9383;50.928;12.116;2023-03-26T17:07:02;97395.88;;;8.22;98.24
18509;BME280;9383;50.928;12.116;2023-03-26T17:09:37;97402.97;;;8.20;98.20
18509;BME280;9383;50.928;12.116;2023-03-26T17:12:31;97406.56;;;8.19;98.05
18509;BME280;9383;50.928;12.116;2023-03-26T17:18:21;97406.78;;;8.14;98.28
18509;BME280;9383;50.928;12.116;2023-03-26T17:21:10;97399.88;;;8.12;98.04
18509;BME280;9383;50.928;12.116;2023-03-26T17:27:46;97403.59;;;8.08;97.89
18509;BME280;9383;50.928;12.116;2023-03-26T17:30:01;97403.69;;;8.06;97.92
18509;BME280;9383;50.928;12.116;2023-03-26T17:32:56;97405.47;;;8.06;97.87
18509;BME280;9383;50.928;12.116;2023-03-26T17:35:45;97407.31;;;8.03;97.85
18509;BME280;9383;50.928;12.116;2023-03-26T17:40:54;97407.38;;;8.02;97.47
18509;BME280;9383;50.928;12.116;2023-03-26T17:43:42;97408.41;;;7.99;97.76
18509;BME280;9383;50.928;12.116;2023-03-26T17:49:18;97409.47;;;7.95;97.81
18509;BME280;9383;50.928;12.116;2023-03-26T17:54:40;97413.19;;;7.91;97.91
18509;BME280;9383;50.928;12.116;2023-03-26T17:57:21;97402.81;;;7.88;98.05